Time;durP1;ratioP1;P1;durP2;ratioP2;P2;SDS_P1;SDS_P2;PMS_P1;PMS_P2;Temp;Humidity;BMP_temperature;BMP_pressure;BME280_temperature;BME280_humidity;BME280_pressure;Samples;Min_cycle;Max_cycle;Signal;HPM_P1;HPM_P2
2022/06/04 00:02:18;;;;;;;10.65;7.55;;;;;;;17.23;100.00;93585.41;5100828;28;20050;-92
2022/06/04 00:04:45;;;;;;;11.23;7.60;;;;;;;17.35;100.00;93602.69;5101447;28;20467;-92
2022/06/04 00:07:12;;;;;;;12.25;8.15;;;;;;;17.38;100.00;93597.03;5101270;28;20109;-92
2022/06/04 00:15:28;;;;;;;13.02;7.72;;;;;;;17.41;100.00;93613.94;5100626;28;20414;-92
2022/06/04 00:17:59;;;;;;;12.02;7.88;;;;;;;17.16;100.00;93608.19;5099453;28;20093;-93
2022/06/04 00:20:26;;;;;;;12.43;7.45;;;;;;;17.12;100.00;93611.50;5101617;28;20062;-90
2022/06/04 00:23:01;;;;;;;10.75;7.78;;;;;;;16.98;100.00;93590.28;5100552;28;20445;-93
2022/06/04 00:25:30;;;;;;;12.20;6.95;;;;;;;17.05;100.00;93602.09;5099851;28;20052;-93
2022/06/04 00:27:59;;;;;;;11.73;7.68;;;;;;;16.98;100.00;93596.25;5101291;28;20401;-93
2022/06/04 00:30:27;;;;;;;10.25;7.53;;;;;;;17.03;100.00;93603.34;5100771;28;20090;-92
2022/06/04 00:32:54;;;;;;;14.27;8.35;;;;;;;17.04;100.00;93592.72;5098354;28;20044;-92
2022/06/04 00:35:21;;;;;;;12.63;7.60;;;;;;;16.99;100.00;93591.84;5100325;28;20482;-93
2022/06/04 00:37:48;;;;;;;10.85;8.10;;;;;;;16.96;100.00;93591.28;5099872;28;20052;-93
2022/06/04 00:40:24;;;;;;;12.30;7.63;;;;;;;16.94;100.00;93588.16;5100139;28;20053;-92
2022/06/04 00:42:50;;;;;;;10.75;7.50;;;;;;;16.89;100.00;93582.13;5098708;28;20043;-92
2022/06/04 00:46:11;;;;;;;11.15;8.00;;;;;;;16.87;100.00;93590.16;5100535;28;20047;-92
2022/06/04 00:48:39;;;;;;;15.30;9.23;;;;;;;16.77;100.00;93593.41;5100771;28;20039;-93
2022/06/04 00:51:07;;;;;;;12.18;8.45;;;;;;;16.72;100.00;93584.75;5100626;28;20113;-93
2022/06/04 00:53:35;;;;;;;12.55;7.85;;;;;;;16.70;100.00;93578.00;5100547;28;20094;-93
2022/06/04 00:56:15;;;;;;;13.52;8.57;;;;;;;16.72;100.00;93575.16;5100167;28;20436;-89
2022/06/04 00:58:54;;;;;;;14.05;8.48;;;;;;;16.69;100.00;93578.22;5099822;28;20035;-91
2022/06/04 01:01:26;;;;;;;15.25;8.18;;;;;;;16.60;100.00;93562.28;5100032;28;20540;-93
2022/06/04 01:04:47;;;;;;;11.93;8.15;;;;;;;16.61;100.00;93563.06;5101499;28;20048;-92
2022/06/04 01:07:16;;;;;;;10.70;7.70;;;;;;;16.57;100.00;93565.34;5102434;28;20052;-92
2022/06/04 01:10:00;;;;;;;15.32;7.75;;;;;;;16.27;100.00;93525.00;5105196;28;20092;-93
2022/06/04 01:12:38;;;;;;;11.07;7.68;;;;;;;16.50;100.00;93565.53;5105759;28;20044;-93
2022/06/04 01:15:20;;;;;;;13.60;8.23;;;;;;;16.46;100.00;93554.03;5116307;28;20062;-92
2022/06/04 01:17:57;;;;;;;11.05;8.07;;;;;;;16.43;100.00;93551.91;5127455;28;20052;-91
2022/06/04 01:20:38;;;;;;;12.70;8.25;;;;;;;16.26;100.00;93546.75;5107475;28;20043;-93
2022/06/04 01:23:42;;;;;;;13.18;9.32;;;;;;;16.09;100.00;93544.16;5101070;28;20040;-93
2022/06/04 01:26:42;;;;;;;15.57;9.20;;;;;;;15.95;100.00;93531.53;5047867;28;20083;-92
2022/06/04 01:29:14;;;;;;;14.35;9.27;;;;;;;15.99;100.00;93544.78;5093460;28;20043;-93
2022/06/04 01:31:45;;;;;;;15.55;9.57;;;;;;;16.11;100.00;93544.72;5095218;28;20558;-91
2022/06/04 01:34:17;;;;;;;12.40;8.25;;;;;;;16.11;100.00;93545.50;5092047;27;20097;-93
2022/06/04 01:36:48;;;;;;;14.55;8.13;;;;;;;16.10;100.00;93540.56;5093184;28;20104;-93
2022/06/04 01:39:20;;;;;;;9.45;7.68;;;;;;;16.14;100.00;93547.63;5092001;28;20055;-94
2022/06/04 01:41:50;;;;;;;10.10;7.70;;;;;;;16.00;100.00;93529.00;5090824;28;20047;-93
2022/06/04 01:44:21;;;;;;;9.27;7.82;;;;;;;16.10;100.00;93549.13;5092946;28;20165;-93
2022/06/04 01:46:55;;;;;;;12.43;8.18;;;;;;;16.10;100.00;93562.06;5094670;28;20092;-92
2022/06/04 01:49:29;;;;;;;11.65;8.43;;;;;;;16.08;100.00;93571.88;5094388;28;20490;-92
2022/06/04 01:52:01;;;;;;;13.70;8.85;;;;;;;16.05;100.00;93567.16;5102068;28;20035;-93
2022/06/04 01:54:31;;;;;;;10.95;8.02;;;;;;;15.99;100.00;93568.91;5101627;28;20047;-94
2022/06/04 01:57:07;;;;;;;10.35;7.82;;;;;;;15.83;100.00;93552.28;5101447;28;20044;-93
2022/06/04 01:59:39;;;;;;;11.45;8.20;;;;;;;15.87;100.00;93560.34;5100341;28;20486;-93
2022/06/04 02:02:11;;;;;;;12.00;8.30;;;;;;;15.98;100.00;93582.09;5101389;28;20070;-92
2022/06/04 02:04:44;;;;;;;14.45;8.25;;;;;;;15.90;100.00;93576.25;5101725;28;20044;-93
2022/06/04 02:07:31;;;;;;;11.48;8.30;;;;;;;15.83;100.00;93580.00;5101763;28;20727;-93
2022/06/04 02:10:02;;;;;;;10.75;8.15;;;;;;;15.76;100.00;93587.91;5101178;28;20119;-94
2022/06/04 02:12:33;;;;;;;10.27;7.78;;;;;;;15.70;100.00;93587.00;5101400;28;20101;-94
2022/06/04 02:15:02;;;;;;;14.93;9.15;;;;;;;15.74;100.00;93597.72;5101265;28;20070;-94
2022/06/04 02:17:30;;;;;;;14.63;9.23;;;;;;;15.63;100.00;93582.00;5101353;28;20170;-93
2022/06/04 02:19:57;;;;;;;15.25;9.68;;;;;;;15.80;100.00;93604.56;5101893;28;20036;-93
2022/06/04 02:22:31;;;;;;;13.15;8.50;;;;;;;15.79;100.00;93607.38;5101450;28;20443;-92
2022/06/04 02:25:00;;;;;;;12.60;8.60;;;;;;;15.80;100.00;93611.53;5100660;28;20060;-92
2022/06/04 02:27:36;;;;;;;11.93;9.00;;;;;;;15.82;100.00;93618.06;5101556;28;20052;-93
2022/06/04 02:30:10;;;;;;;12.63;8.57;;;;;;;15.85;100.00;93619.41;5101273;28;20040;-92
2022/06/04 02:32:50;;;;;;;12.93;8.45;;;;;;;15.84;100.00;93623.00;5099264;28;20568;-90
2022/06/04 02:35:26;;;;;;;11.82;9.45;;;;;;;15.87;100.00;93617.34;5100638;28;20048;-91
2022/06/04 02:38:00;;;;;;;10.88;7.93;;;;;;;15.77;100.00;93603.22;5099341;28;20040;-90
2022/06/04 02:40:30;;;;;;;11.27;8.60;;;;;;;15.90;100.00;93620.28;5100732;28;20093;-89
2022/06/04 02:43:05;;;;;;;11.68;7.45;;;;;;;15.94;100.00;93620.63;5101421;28;20060;-91
2022/06/04 02:45:37;;;;;;;10.85;7.93;;;;;;;15.95;100.00;93611.03;5101831;28;20531;-89
2022/06/04 02:48:10;;;;;;;11.13;8.00;;;;;;;15.84;100.00;93584.16;5101906;28;20052;-90
2022/06/04 02:50:42;;;;;;;8.23;6.68;;;;;;;15.89;100.00;93600.56;5101196;28;20035;-90
2022/06/04 02:53:11;;;;;;;12.82;8.07;;;;;;;15.78;100.00;93598.81;5098282;28;20052;-90
2022/06/04 02:55:45;;;;;;;11.85;7.63;;;;;;;15.80;100.00;93599.38;5100589;28;20105;-91
2022/06/04 02:58:15;;;;;;;11.23;8.23;;;;;;;15.75;100.00;93584.50;5099847;28;20060;-90
2022/06/04 03:00:45;;;;;;;11.93;8.05;;;;;;;15.80;100.00;93583.84;5099468;28;20102;-91
2022/06/04 03:03:12;;;;;;;10.55;8.07;;;;;;;15.81;100.00;93582.81;5099775;28;20044;-90
2022/06/04 03:05:52;;;;;;;11.70;7.68;;;;;;;15.81;100.00;93577.63;5098796;28;20066;-90
2022/06/04 03:08:18;;;;;;;10.07;7.57;;;;;;;15.80;100.00;93570.88;5100707;28;20485;-91
2022/06/04 03:10:46;;;;;;;15.35;9.05;;;;;;;15.80;100.00;93567.50;5101001;28;20510;-90
2022/06/04 03:13:14;;;;;;;11.68;7.78;;;;;;;15.67;100.00;93560.81;5100386;28;20501;-91
2022/06/04 03:15:43;;;;;;;19.15;9.77;;;;;;;15.61;100.00;93549.59;5098131;28;20044;-90
2022/06/04 03:18:09;;;;;;;16.50;8.70;;;;;;;15.76;100.00;93572.38;5100282;28;20123;-91
2022/06/04 03:20:37;;;;;;;19.02;8.40;;;;;;;15.74;100.00;93564.81;5099970;28;20543;-91
2022/06/04 03:23:06;;;;;;;16.00;8.50;;;;;;;15.73;100.00;93568.44;5100700;28;20126;-91
2022/06/04 03:25:35;;;;;;;12.70;7.82;;;;;;;15.59;100.00;93560.16;5100106;27;20519;-92
2022/06/04 03:28:02;;;;;;;13.85;8.10;;;;;;;15.63;100.00;93569.06;5098161;28;20140;-91
2022/06/04 03:30:29;;;;;;;15.43;8.55;;;;;;;15.63;100.00;93563.06;5099324;28;20135;-91
2022/06/04 03:32:57;;;;;;;13.38;8.93;;;;;;;15.65;100.00;93560.25;5099522;28;20048;-91
2022/06/04 03:35:24;;;;;;;11.65;8.57;;;;;;;15.66;100.00;93551.47;5100477;27;20412;-91
2022/06/04 03:37:51;;;;;;;11.60;8.20;;;;;;;15.66;100.00;93546.28;5095582;28;20044;-91
2022/06/04 03:40:18;;;;;;;10.65;8.05;;;;;;;15.71;100.00;93547.16;5099691;28;20459;-90
2022/06/04 03:42:44;;;;;;;11.10;9.02;;;;;;;15.68;100.00;93545.03;5097722;28;20036;-90
2022/06/04 03:45:14;;;;;;;12.52;8.63;;;;;;;15.68;100.00;93547.63;5098521;28;20048;-89
2022/06/04 03:47:41;;;;;;;13.07;8.65;;;;;;;15.77;100.00;93550.63;5097870;28;20055;-90
2022/06/04 03:50:12;;;;;;;17.27;10.40;;;;;;;15.84;100.00;93558.25;5098787;28;20039;-89
2022/06/04 03:52:39;;;;;;;13.13;9.10;;;;;;;15.92;100.00;93562.25;5099480;28;20085;-90
2022/06/04 03:55:09;;;;;;;12.63;8.75;;;;;;;15.76;100.00;93565.38;5100310;28;20543;-91
2022/06/04 03:57:41;;;;;;;14.52;8.82;;;;;;;15.85;100.00;93567.59;5092044;28;20478;-90
2022/06/04 04:00:13;;;;;;;15.30;8.70;;;;;;;15.79;100.00;93548.59;5093344;28;20049;-87
2022/06/04 04:02:40;;;;;;;11.82;9.20;;;;;;;16.07;100.00;93574.72;5088242;28;20105;-89
2022/06/04 04:05:11;;;;;;;17.63;9.43;;;;;;;16.18;100.00;93576.44;5093971;28;20080;-89
2022/06/04 04:07:38;;;;;;;11.30;8.02;;;;;;;16.26;100.00;93573.44;5097071;28;20079;-88
2022/06/04 04:10:10;;;;;;;11.27;8.63;;;;;;;16.09;100.00;93541.56;5097544;28;20098;-89
2022/06/04 04:12:37;;;;;;;11.38;8.10;;;;;;;16.20;100.00;93582.16;5098485;28;20386;-88
2022/06/04 04:15:05;;;;;;;10.20;8.23;;;;;;;16.11;100.00;93589.53;5099839;28;20043;-89
2022/06/04 04:17:36;;;;;;;12.27;8.70;;;;;;;16.38;100.00;93591.53;5094114;28;20076;-88
2022/06/04 04:20:05;;;;;;;14.25;8.77;;;;;;;16.58;100.00;93595.47;5097658;28;20040;-89
2022/06/04 04:22:33;;;;;;;14.48;8.80;;;;;;;16.65;100.00;93582.31;5099615;28;20483;-90
2022/06/04 04:25:00;;;;;;;14.23;9.43;;;;;;;16.80;100.00;93605.88;5100947;28;20051;-89
2022/06/04 04:27:27;;;;;;;12.60;9.02;;;;;;;16.80;100.00;93603.28;5100054;28;20482;-90
2022/06/04 04:29:54;;;;;;;14.00;9.63;;;;;;;16.87;100.00;93602.31;5100171;28;20100;-88
2022/06/04 04:32:20;;;;;;;18.25;9.95;;;;;;;17.14;100.00;93622.44;5100298;28;20044;-90
2022/06/04 04:34:47;;;;;;;14.68;9.43;;;;;;;17.19;100.00;93617.31;5100929;28;20512;-89
2022/06/04 04:37:14;;;;;;;15.98;9.10;;;;;;;17.27;100.00;93622.06;5100831;28;20051;-90
2022/06/04 04:39:42;;;;;;;12.90;9.05;;;;;;;17.20;100.00;93618.88;5104097;28;20051;-90
2022/06/04 04:42:09;;;;;;;16.48;10.63;;;;;;;17.28;100.00;93630.66;5113918;28;20043;-89
2022/06/04 04:44:36;;;;;;;14.48;10.63;;;;;;;17.44;100.00;93631.59;5116260;28;20056;-89
2022/06/04 04:47:03;;;;;;;22.30;12.20;;;;;;;17.59;100.00;93631.03;5124712;28;20054;-90
2022/06/04 04:49:29;;;;;;;21.95;13.27;;;;;;;17.48;100.00;93623.09;5116011;28;20113;-89
2022/06/04 04:51:56;;;;;;;18.83;12.30;;;;;;;17.64;100.00;93628.47;5098992;28;20490;-90
2022/06/04 04:54:29;;;;;;;21.48;12.50;;;;;;;17.82;100.00;93632.56;5099853;28;20097;-90
2022/06/04 04:56:57;;;;;;;20.70;12.63;;;;;;;18.00;100.00;93628.03;5099236;28;20054;-90
2022/06/04 04:59:24;;;;;;;22.70;13.63;;;;;;;18.18;100.00;93633.97;5100154;28;20097;-88
2022/06/04 05:01:50;;;;;;;23.80;12.43;;;;;;;18.36;100.00;93636.19;5100125;28;20183;-89
2022/06/04 05:04:17;;;;;;;24.73;14.18;;;;;;;18.50;100.00;93639.19;5099572;28;20040;-88
2022/06/04 05:06:44;;;;;;;24.13;13.57;;;;;;;18.68;100.00;93642.41;5099072;28;20433;-89
2022/06/04 05:09:11;;;;;;;20.60;11.43;;;;;;;18.81;100.00;93643.81;5099455;28;20121;-89
2022/06/04 05:11:38;;;;;;;17.52;10.55;;;;;;;18.97;100.00;93647.28;5098310;28;20169;-88
2022/06/04 05:14:07;;;;;;;18.45;10.48;;;;;;;18.99;100.00;93621.00;5097952;28;20080;-89
2022/06/04 05:16:36;;;;;;;17.75;10.20;;;;;;;19.27;100.00;93651.16;5099814;28;20100;-89
2022/06/04 05:19:03;;;;;;;15.15;9.57;;;;;;;19.39;100.00;93642.34;5099786;28;20048;-88
2022/06/04 05:21:39;;;;;;;20.70;9.70;;;;;;;19.45;100.00;93633.50;5100083;28;20044;-89
2022/06/04 05:24:26;;;;;;;12.48;9.98;;;;;;;19.75;100.00;93656.28;5099055;28;20094;-88
2022/06/04 05:26:54;;;;;;;18.85;9.88;;;;;;;19.85;100.00;93650.31;5097632;28;20645;-88
2022/06/04 05:29:23;;;;;;;16.08;9.52;;;;;;;19.98;100.00;93653.50;5101111;28;20040;-88
2022/06/04 05:31:52;;;;;;;14.10;9.80;;;;;;;20.14;100.00;93659.56;5098872;28;20226;-88
2022/06/04 05:34:19;;;;;;;16.58;9.50;;;;;;;20.22;100.00;93648.59;5099700;28;20043;-88
2022/06/04 05:36:47;;;;;;;17.55;10.48;;;;;;;20.35;100.00;93654.34;5099277;28;20047;-85
2022/06/04 05:39:15;;;;;;;13.35;10.45;;;;;;;20.51;99.99;93676.78;5099204;28;20481;-87
2022/06/04 05:41:43;;;;;;;15.40;9.25;;;;;;;20.59;100.00;93664.28;5099241;28;20420;-89
2022/06/04 05:44:10;;;;;;;18.08;12.15;;;;;;;20.73;100.00;93664.53;5099048;28;20048;-89
2022/06/04 05:46:41;;;;;;;27.55;14.38;;;;;;;20.72;100.00;93668.19;5098796;28;20056;-88
2022/06/04 05:49:08;;;;;;;24.17;13.85;;;;;;;20.78;100.00;93665.31;5098903;28;20127;-89
2022/06/04 05:51:36;;;;;;;25.75;14.05;;;;;;;20.87;100.00;93667.44;5101128;28;20616;-88
2022/06/04 05:54:02;;;;;;;24.65;13.95;;;;;;;20.88;100.00;93666.38;5102558;28;20039;-90
2022/06/04 05:56:31;;;;;;;28.90;14.15;;;;;;;21.07;99.74;93671.84;5102876;28;20084;-88
2022/06/04 05:59:01;;;;;;;28.48;14.02;;;;;;;21.23;97.97;93676.00;5105683;28;20113;-89
2022/06/04 06:01:31;;;;;;;23.42;12.68;;;;;;;21.40;97.55;93674.91;5100089;28;20481;-89
2022/06/04 06:04:00;;;;;;;26.20;14.20;;;;;;;21.49;98.34;93668.06;5101171;28;20051;-88
2022/06/04 06:06:31;;;;;;;27.60;14.93;;;;;;;21.67;97.05;93657.28;5103050;28;20044;-90
2022/06/04 06:09:01;;;;;;;32.40;15.02;;;;;;;21.96;96.86;93672.34;5102466;28;20161;-88
2022/06/04 06:11:28;;;;;;;23.90;14.05;;;;;;;22.22;96.58;93680.84;5102252;28;20044;-89
2022/06/04 06:13:55;;;;;;;22.70;14.27;;;;;;;22.54;93.73;93671.75;5101671;28;20043;-88
2022/06/04 06:16:27;;;;;;;29.77;14.73;;;;;;;22.87;92.12;93673.09;5103350;28;20482;-89
2022/06/04 06:18:54;;;;;;;26.92;15.15;;;;;;;23.20;90.24;93662.81;5103312;28;20113;-88
2022/06/04 06:21:24;;;;;;;33.83;16.73;;;;;;;23.42;89.24;93653.72;5102871;28;20043;-88
2022/06/04 06:23:52;;;;;;;30.65;16.42;;;;;;;23.81;88.45;93657.19;5101884;28;20127;-86
2022/06/04 06:26:20;;;;;;;34.53;18.30;;;;;;;23.98;86.24;93656.72;5095979;28;20040;-89
2022/06/04 06:28:48;;;;;;;39.90;19.90;;;;;;;24.09;83.90;93657.38;5099745;28;20505;-88
2022/06/04 06:31:18;;;;;;;42.83;18.77;;;;;;;24.08;83.76;93643.50;5101532;28;20098;-87
2022/06/04 06:33:45;;;;;;;44.13;20.05;;;;;;;24.09;85.28;93649.50;5101171;28;20486;-88
2022/06/04 06:36:15;;;;;;;41.08;20.38;;;;;;;24.50;82.92;93645.50;5101570;28;20067;-87
2022/06/04 06:38:45;;;;;;;45.92;20.70;;;;;;;24.78;80.62;93632.44;5102021;28;20036;-87
2022/06/04 06:41:13;;;;;;;39.17;18.77;;;;;;;25.20;78.03;93635.94;5102103;28;20542;-87
2022/06/04 06:43:42;;;;;;;33.85;18.27;;;;;;;25.38;76.91;93638.78;5102014;28;20487;-87
2022/06/04 06:46:11;;;;;;;38.33;17.73;;;;;;;25.71;76.48;93630.78;5098370;28;20044;-87
2022/06/04 06:48:40;;;;;;;32.25;14.85;;;;;;;26.07;75.04;93628.47;5102986;28;20535;-88
2022/06/04 06:51:08;;;;;;;21.38;11.93;;;;;;;26.12;67.95;93612.56;5102552;28;20398;-90
2022/06/04 06:53:35;;;;;;;23.15;11.40;;;;;;;26.47;69.84;93626.00;5101688;28;20044;-88
2022/06/04 06:56:10;;;;;;;21.02;10.60;;;;;;;26.85;69.58;93618.78;5102224;28;20036;-88
2022/06/04 06:58:37;;;;;;;;;;;;;;;27.22;68.51;93619.44;5102273;28;20141;-88
2022/06/04 07:01:04;;;;;;;18.38;9.63;;;;;;;27.43;66.65;93621.50;5100768;28;19920;-88
2022/06/04 07:03:30;;;;;;;14.80;9.23;;;;;;;27.54;65.32;93622.00;5100963;28;20052;-88
2022/06/04 07:05:57;;;;;;;17.23;9.60;;;;;;;27.73;64.05;93619.91;5101005;28;20052;-88
2022/06/04 07:08:25;;;;;;;16.10;8.07;;;;;;;27.69;59.43;93623.47;5100702;28;20043;-88
2022/06/04 07:10:52;;;;;;;11.98;7.43;;;;;;;27.24;61.75;93616.47;5101537;28;20130;-88
2022/06/04 07:13:20;;;;;;;17.48;8.55;;;;;;;26.88;64.67;93591.84;5099496;28;20432;-89
2022/06/04 07:15:48;;;;;;;14.77;7.57;;;;;;;27.15;63.79;93600.63;5101662;28;20101;-88
2022/06/04 07:18:16;;;;;;;13.85;7.82;;;;;;;27.33;63.43;93599.63;5102050;28;20040;-87
2022/06/04 07:20:43;;;;;;;17.30;7.63;;;;;;;27.61;62.86;93602.03;5101452;28;20494;-88
2022/06/04 07:23:11;;;;;;;15.57;7.00;;;;;;;27.65;62.30;93589.00;5102387;28;20044;-88
2022/06/04 07:25:40;;;;;;;12.48;6.95;;;;;;;27.85;60.63;93598.19;5097344;28;20044;-88
2022/06/04 07:28:07;;;;;;;12.25;6.80;;;;;;;27.95;61.19;93597.09;5100914;28;20494;-88
2022/06/04 07:30:36;;;;;;;13.07;6.70;;;;;;;28.17;60.99;93599.91;5101321;28;20088;-87
2022/06/04 07:33:02;;;;;;;11.93;7.38;;;;;;;28.40;60.56;93587.31;5101162;28;20478;-88
2022/06/04 07:35:29;;;;;;;15.32;8.20;;;;;;;28.35;60.91;93582.97;5101199;28;20077;-87
2022/06/04 07:37:56;;;;;;;17.45;8.13;;;;;;;28.35;61.26;93566.34;5101435;28;20079;-86
2022/06/04 07:40:23;;;;;;;12.20;7.93;;;;;;;28.54;59.79;93577.34;5100267;28;20477;-87
2022/06/04 07:42:49;;;;;;;15.27;6.75;;;;;;;28.51;59.62;93564.75;5100210;28;20056;-87
2022/06/04 07:45:16;;;;;;;9.13;6.22;;;;;;;28.44;58.49;93550.47;5100753;28;20511;-91
2022/06/04 07:47:45;;;;;;;11.02;5.65;;;;;;;28.46;58.20;93554.34;5101014;28;20473;-87
2022/06/04 07:50:14;;;;;;;7.47;5.05;;;;;;;28.58;59.11;93555.56;5099115;28;20048;-87
2022/06/04 07:52:40;;;;;;;7.95;4.72;;;;;;;28.55;56.94;93559.59;5100831;28;20090;-88
2022/06/04 07:55:08;;;;;;;8.32;4.78;;;;;;;28.74;57.59;93550.56;5100902;28;20511;-86
2022/06/04 07:57:35;;;;;;;11.50;5.75;;;;;;;28.88;59.11;93545.09;5100249;28;20048;-87
2022/06/04 08:00:03;;;;;;;9.50;5.30;;;;;;;29.03;60.07;93547.22;5100621;28;20047;-85
2022/06/04 08:02:30;;;;;;;7.75;4.97;;;;;;;28.63;60.21;93519.19;5097295;28;20070;-87
2022/06/04 08:04:58;;;;;;;9.35;5.60;;;;;;;28.90;60.14;93543.69;5096366;28;20104;-89
2022/06/04 08:07:25;;;;;;;9.00;5.63;;;;;;;28.32;61.11;93528.13;5099960;28;20048;-88
2022/06/04 08:09:52;;;;;;;8.98;5.13;;;;;;;28.77;61.91;93542.75;5099870;28;20043;-85
2022/06/04 08:12:19;;;;;;;7.47;5.47;;;;;;;28.92;59.27;93543.34;5100170;28;20048;-85
2022/06/04 08:14:46;;;;;;;6.85;4.93;;;;;;;29.17;59.85;93543.56;5101813;28;20044;-87
2022/06/04 08:17:14;;;;;;;8.55;4.72;;;;;;;29.39;56.42;93544.38;5100567;28;20122;-88
2022/06/04 08:19:41;;;;;;;9.90;5.07;;;;;;;29.60;55.48;93536.47;5103283;28;20527;-88
2022/06/04 08:22:12;;;;;;;7.28;4.82;;;;;;;29.72;56.08;93538.41;5103775;28;20052;-86
2022/06/04 08:24:40;;;;;;;10.25;4.40;;;;;;;29.98;55.02;93532.13;5098795;28;20100;-87
2022/06/04 08:27:07;;;;;;;7.65;4.82;;;;;;;30.02;55.19;93537.56;5099681;28;20505;-87
2022/06/04 08:29:37;;;;;;;7.43;5.43;;;;;;;29.62;53.27;93521.03;5099714;28;20115;-87
2022/06/04 08:32:05;;;;;;;7.57;5.03;;;;;;;29.80;56.32;93500.50;5098507;28;20066;-87
2022/06/04 08:34:33;;;;;;;8.60;6.03;;;;;;;30.16;53.82;93532.00;5083223;28;20170;-88
2022/06/04 08:37:00;;;;;;;10.77;5.72;;;;;;;29.99;55.24;93534.44;5089134;28;20047;-88
2022/06/04 08:39:29;;;;;;;10.20;5.15;;;;;;;30.20;55.33;93531.03;5097389;28;20520;-87
2022/06/04 08:42:07;;;;;;;9.73;5.28;;;;;;;30.33;53.17;93523.09;5097113;28;20097;-87
2022/06/04 08:44:35;;;;;;;7.40;4.28;;;;;;;30.51;51.97;93527.13;5097468;28;20051;-89
2022/06/04 08:47:12;;;;;;;8.20;4.60;;;;;;;30.64;50.79;93530.56;5096469;28;20100;-88
2022/06/04 08:49:43;;;;;;;6.57;3.88;;;;;;;30.76;49.49;93534.34;5098937;28;20052;-88
2022/06/04 08:52:13;;;;;;;5.85;4.20;;;;;;;30.78;50.74;93529.50;5098545;28;20439;-88
2022/06/04 08:57:36;;;;;;;5.47;4.20;;;;;;;30.28;45.36;93532.03;5099070;28;20043;-89
2022/06/04 09:00:14;;;;;;;6.45;3.63;;;;;;;30.31;46.64;93517.38;5097498;28;20044;-89
2022/06/04 09:02:57;;;;;;;8.25;4.07;;;;;;;30.32;47.32;93527.66;5099039;28;20052;-88
2022/06/04 09:05:31;;;;;;;8.48;4.10;;;;;;;29.43;50.34;93513.53;5098542;28;20123;-87
2022/06/04 09:08:16;;;;;;;;;;;;;;;;;;;;;
2022/06/04 09:10:49;;;;;;;;;;;;;;;27.86;57.65;93536.38;5099618;28;20390;-89
2022/06/04 09:13:22;;;;;;;6.88;4.43;;;;;;;27.93;56.73;93533.28;5100028;28;19919;-89
2022/06/04 09:15:54;;;;;;;14.02;5.40;;;;;;;28.03;58.72;93534.06;5097029;28;20098;-89
2022/06/04 09:18:27;;;;;;;9.65;4.63;;;;;;;27.25;59.26;93528.41;5098339;28;20120;-89
2022/06/04 09:20:56;;;;;;;9.80;5.55;;;;;;;27.42;58.19;93533.69;5102485;28;21893;-90
2022/06/04 09:23:31;;;;;;;10.23;4.93;;;;;;;27.59;57.75;93526.91;5104537;28;20093;-90
2022/06/04 09:26:06;;;;;;;14.20;7.47;;;;;;;27.72;61.05;93538.41;5100250;28;20486;-91
2022/06/04 09:28:45;;;;;;;14.10;7.65;;;;;;;27.77;64.58;93534.84;5103224;28;20455;-90
2022/06/04 09:31:25;;;;;;;14.52;7.05;;;;;;;27.92;62.26;93537.00;5101562;28;20089;-89
2022/06/04 09:33:58;;;;;;;12.95;7.28;;;;;;;27.66;61.95;93531.72;5103556;28;20051;-88
2022/06/04 09:36:28;;;;;;;14.68;7.25;;;;;;;27.78;62.87;93545.09;5101876;28;20047;-88
2022/06/04 09:38:59;;;;;;;14.25;7.13;;;;;;;27.86;62.11;93506.59;5100321;28;20044;-89
2022/06/04 09:41:29;;;;;;;14.15;8.05;;;;;;;28.30;61.62;93532.16;5101634;28;20405;-88
2022/06/04 09:44:06;;;;;;;12.48;7.07;;;;;;;28.65;60.00;93534.72;5099975;28;20047;-88
2022/06/04 09:46:34;;;;;;;13.13;7.85;;;;;;;28.87;60.66;93533.72;5102274;28;20048;-87
2022/06/04 09:49:13;;;;;;;14.70;8.02;;;;;;;29.16;59.35;93540.13;5102541;28;20097;-87
2022/06/04 09:51:43;;;;;;;10.98;7.00;;;;;;;29.20;55.92;93533.09;5109916;28;20054;-88
2022/06/04 09:54:23;;;;;;;17.70;7.72;;;;;;;29.61;57.13;93527.44;5100978;28;20487;-88
2022/06/04 09:56:55;;;;;;;13.75;7.20;;;;;;;29.59;54.47;93521.69;5102380;28;20099;-87
2022/06/04 09:59:25;;;;;;;13.55;7.25;;;;;;;29.79;56.88;93514.84;5103038;28;20493;-87
2022/06/04 10:01:57;;;;;;;10.48;6.38;;;;;;;29.92;54.63;93520.97;5103319;28;20043;-86
2022/06/04 10:04:25;;;;;;;11.98;6.65;;;;;;;30.46;52.92;93524.69;5100165;28;20043;-87
2022/06/04 10:06:52;;;;;;;12.80;6.63;;;;;;;30.54;52.32;93502.63;5101935;28;20486;-88
2022/06/04 10:12:17;;;;;;;10.55;6.70;;;;;;;29.28;54.51;93506.91;5102800;28;20074;-86
2022/06/04 10:14:57;;;;;;;15.73;6.40;;;;;;;28.88;54.71;93511.47;5101597;28;20102;-86
2022/06/04 10:17:35;;;;;;;13.60;6.93;;;;;;;29.27;56.44;93511.44;5102727;28;20047;-86
2022/06/04 10:20:04;;;;;;;11.85;6.75;;;;;;;29.90;54.05;93512.59;5100177;28;20085;-86
2022/06/04 10:22:31;;;;;;;10.88;6.60;;;;;;;30.40;53.37;93507.44;5101954;28;20043;-84
2022/06/04 10:25:03;;;;;;;11.93;7.50;;;;;;;30.74;52.14;93510.06;5100263;28;20130;-86
2022/06/04 10:27:52;;;;;;;14.60;7.00;;;;;;;31.28;52.35;93508.31;5100595;28;20068;-85
2022/06/04 10:30:25;;;;;;;15.05;6.97;;;;;;;31.65;49.45;93505.56;5099245;28;20036;-86
2022/06/04 10:33:09;;;;;;;22.17;7.22;;;;;;;31.95;48.49;93496.53;5102471;28;20489;-83
2022/06/04 10:35:48;;;;;;;10.70;6.88;;;;;;;32.13;46.90;93495.09;5101448;28;20067;-86
2022/06/04 10:38:26;;;;;;;12.40;6.20;;;;;;;32.24;46.33;93502.59;5102502;28;20039;-84
2022/06/04 10:41:11;;;;;;;11.23;5.72;;;;;;;31.37;46.77;93495.69;5104048;28;20143;-88
2022/06/04 10:43:55;;;;;;;15.30;6.32;;;;;;;30.81;47.47;93470.50;5096598;28;20060;-88
2022/06/04 10:46:32;;;;;;;11.10;5.90;;;;;;;31.74;48.57;93494.78;5096558;28;20036;-86
2022/06/04 10:49:13;;;;;;;10.60;5.25;;;;;;;32.10;45.36;93500.31;5101925;28;20502;-86
2022/06/04 10:51:55;;;;;;;8.68;4.93;;;;;;;32.81;41.82;93480.44;5101095;28;20048;-86
2022/06/04 10:54:29;;;;;;;13.00;5.47;;;;;;;32.29;40.77;93475.75;5100647;28;20044;-86
2022/06/04 10:57:00;;;;;;;8.35;4.63;;;;;;;31.11;42.92;93480.09;5101257;28;20132;-87
2022/06/04 10:59:38;;;;;;;8.43;5.03;;;;;;;30.83;44.46;93463.00;5102305;28;20119;-85
2022/06/04 11:02:15;;;;;;;10.23;5.50;;;;;;;29.67;45.55;93467.91;5099772;28;20090;-87
2022/06/04 11:04:48;;;;;;;10.30;5.18;;;;;;;29.53;47.35;93468.16;5100637;28;20060;-87
2022/06/04 11:07:34;;;;;;;10.35;5.65;;;;;;;30.08;47.95;93462.84;5102526;28;20096;-87
2022/06/04 11:10:06;;;;;;;7.72;5.60;;;;;;;30.39;47.04;93434.34;5101740;28;20054;-87
2022/06/04 11:12:39;;;;;;;8.40;5.57;;;;;;;30.96;45.25;93450.50;5101999;28;20551;-86
2022/06/04 11:15:14;;;;;;;9.98;5.75;;;;;;;31.71;44.69;93445.03;5099436;28;20096;-86
2022/06/04 11:17:47;;;;;;;8.70;5.65;;;;;;;32.04;41.94;93451.22;5100603;28;20128;-87
2022/06/04 11:20:18;;;;;;;7.53;4.65;;;;;;;32.15;43.13;93436.31;5101810;28;20478;-87
2022/06/04 11:22:53;;;;;;;10.40;5.32;;;;;;;32.78;41.53;93444.66;5102248;28;20398;-87
2022/06/04 11:25:27;;;;;;;8.95;5.22;;;;;;;32.72;39.97;93427.41;5101950;28;20104;-87
2022/06/04 11:27:56;;;;;;;7.65;4.50;;;;;;;32.62;39.47;93437.44;5099695;28;20127;-88
2022/06/04 11:30:38;;;;;;;9.00;5.03;;;;;;;32.96;40.41;93434.41;5097326;28;20047;-88
2022/06/04 11:33:19;;;;;;;6.43;4.88;;;;;;;32.57;39.90;93416.44;5100733;28;20047;-90
2022/06/04 11:35:54;;;;;;;23.33;7.15;;;;;;;31.94;41.80;93452.47;5100227;28;20041;-87
2022/06/04 11:38:34;;;;;;;8.02;4.75;;;;;;;32.60;43.04;93442.34;5101267;28;20108;-85
2022/06/04 11:41:14;;;;;;;7.70;4.78;;;;;;;33.04;41.49;93436.13;5099958;28;20040;-87
2022/06/04 11:44:00;;;;;;;8.60;4.30;;;;;;;33.36;40.09;93440.56;5099018;28;20085;-87
2022/06/04 11:46:42;;;;;;;9.45;4.55;;;;;;;33.35;39.83;93441.69;5098984;28;20458;-84
2022/06/04 11:49:25;;;;;;;9.98;4.80;;;;;;;33.68;38.47;93448.44;5100904;28;20050;-87
2022/06/04 11:52:16;;;;;;;6.65;4.10;;;;;;;33.02;38.90;93417.09;5102197;28;20120;-86
2022/06/04 11:54:58;;;;;;;6.75;4.45;;;;;;;33.35;38.96;93440.94;5099243;28;20048;-87
2022/06/04 11:57:32;;;;;;;9.30;4.40;;;;;;;32.65;38.53;93391.56;5095785;28;20449;-87